sensor_id;sensor_type;location;lat;lon;timestamp;pressure;altitude;pressure_sealevel;temperature;humidity
55187;BME280;55457;52.002;5.464;2023-01-23T00:01:42;103318.53;;;20.04;38.21
55187;BME280;55457;52.002;5.464;2023-01-23T00:04:09;103332.06;;;20.04;38.34
55187;BME280;55457;52.002;5.464;2023-01-23T00:06:36;103326.66;;;20.04;38.10
55187;BME280;55457;52.002;5.464;2023-01-23T00:09:02;103339.19;;;20.05;38.21
55187;BME280;55457;52.002;5.464;2023-01-23T00:11:28;103340.03;;;20.05;38.24
55187;BME280;55457;52.002;5.464;2023-01-23T00:13:55;103341.91;;;20.05;38.28
55187;BME280;55457;52.002;5.464;2023-01-23T00:16:23;103345.44;;;20.05;38.26
55187;BME280;55457;52.002;5.464;2023-01-23T00:18:49;103344.59;;;20.05;38.18
55187;BME280;55457;52.002;5.464;2023-01-23T00:21:17;103334.63;;;20.05;38.28
55187;BME280;55457;52.002;5.464;2023-01-23T00:23:50;103339.19;;;20.05;38.39
55187;BME280;55457;52.002;5.464;2023-01-23T00:26:19;103336.66;;;20.03;38.19
55187;BME280;55457;52.002;5.464;2023-01-23T00:28:45;103330.88;;;20.06;38.26
55187;BME280;55457;52.002;5.464;2023-01-23T00:31:16;103329.22;;;20.05;38.28
55187;BME280;55457;52.002;5.464;2023-01-23T00:33:42;103339.00;;;20.06;38.17
55187;BME280;55457;52.002;5.464;2023-01-23T00:36:09;103340.88;;;20.06;38.14
55187;BME280;55457;52.002;5.464;2023-01-23T00:38:35;103331.72;;;20.07;37.76
55187;BME280;55457;52.002;5.464;2023-01-23T00:41:01;103330.88;;;20.06;38.23
55187;BME280;55457;52.002;5.464;2023-01-23T00:43:27;103331.72;;;20.07;38.40
55187;BME280;55457;52.002;5.464;2023-01-23T00:45:53;103335.25;;;20.07;38.47
55187;BME280;55457;52.002;5.464;2023-01-23T00:48:18;103333.59;;;20.06;38.55
55187;BME280;55457;52.002;5.464;2023-01-23T00:50:43;103332.56;;;20.07;38.29
55187;BME280;55457;52.002;5.464;2023-01-23T00:53:09;103331.53;;;20.08;38.23
55187;BME280;55457;52.002;5.464;2023-01-23T00:55:34;103325.97;;;20.10;38.25
55187;BME280;55457;52.002;5.464;2023-01-23T00:57:59;103324.75;;;20.13;38.16
55187;BME280;55457;52.002;5.464;2023-01-23T01:00:25;103323.91;;;20.12;38.09
55187;BME280;55457;52.002;5.464;2023-01-23T01:02:50;103332.84;;;20.13;38.33
55187;BME280;55457;52.002;5.464;2023-01-23T01:05:16;103326.41;;;20.14;38.22
55187;BME280;55457;52.002;5.464;2023-01-23T01:07:45;103321.00;;;20.14;38.26
55187;BME280;55457;52.002;5.464;2023-01-23T01:10:12;103311.84;;;20.15;38.37
55187;BME280;55457;52.002;5.464;2023-01-23T01:12:37;103310.16;;;20.14;38.29
55187;BME280;55457;52.002;5.464;2023-01-23T01:15:03;103301.22;;;20.13;38.40
55187;BME280;55457;52.002;5.464;2023-01-23T01:17:29;103308.50;;;20.13;38.48
55187;BME280;55457;52.002;5.464;2023-01-23T01:19:54;103302.25;;;20.12;38.41
55187;BME280;55457;52.002;5.464;2023-01-23T01:22:19;103307.47;;;20.14;38.72
55187;BME280;55457;52.002;5.464;2023-01-23T01:24:45;103304.75;;;20.14;38.50
55187;BME280;55457;52.002;5.464;2023-01-23T01:27:10;103311.84;;;20.15;38.62
55187;BME280;55457;52.002;5.464;2023-01-23T01:29:36;103316.25;;;20.16;38.38
55187;BME280;55457;52.002;5.464;2023-01-23T01:32:01;103324.38;;;20.16;38.57
55187;BME280;55457;52.002;5.464;2023-01-23T01:34:26;103327.09;;;20.16;38.58
55187;BME280;55457;52.002;5.464;2023-01-23T01:36:51;103329.59;;;20.17;38.53
55187;BME280;55457;52.002;5.464;2023-01-23T01:39:17;103332.97;;;20.19;38.62
55187;BME280;55457;52.002;5.464;2023-01-23T01:41:43;103336.50;;;20.20;38.67
55187;BME280;55457;52.002;5.464;2023-01-23T01:44:20;103320.25;;;20.20;38.53
55187;BME280;55457;52.002;5.464;2023-01-23T01:46:46;103322.81;;;20.21;38.36
55187;BME280;55457;52.002;5.464;2023-01-23T01:51:45;103321.97;;;20.21;38.33
55187;BME280;55457;52.002;5.464;2023-01-23T01:54:34;103322.63;;;20.23;38.56
55187;BME280;55457;52.002;5.464;2023-01-23T01:57:05;103327.00;;;20.24;38.46
55187;BME280;55457;52.002;5.464;2023-01-23T01:59:55;103325.97;;;20.25;38.41
55187;BME280;55457;52.002;5.464;2023-01-23T02:02:31;103327.69;;;20.26;38.45
55187;BME280;55457;52.002;5.464;2023-01-23T02:05:04;103328.31;;;20.28;38.26
55187;BME280;55457;52.002;5.464;2023-01-23T02:07:34;103330.00;;;20.29;38.36
55187;BME280;55457;52.002;5.464;2023-01-23T02:10:03;103335.22;;;20.30;38.21
55187;BME280;55457;52.002;5.464;2023-01-23T02:12:30;103334.38;;;20.30;38.29
55187;BME280;55457;52.002;5.464;2023-01-23T02:14:56;103331.69;;;20.30;38.20
55187;BME280;55457;52.002;5.464;2023-01-23T02:17:21;103329.81;;;20.30;38.27
55187;BME280;55457;52.002;5.464;2023-01-23T02:20:14;103333.41;;;20.31;38.15
55187;BME280;55457;52.002;5.464;2023-01-23T02:22:54;103336.09;;;20.31;38.18
55187;BME280;55457;52.002;5.464;2023-01-23T02:28:09;103336.25;;;20.29;38.39
55187;BME280;55457;52.002;5.464;2023-01-23T02:30:37;103342.50;;;20.30;38.40
55187;BME280;55457;52.002;5.464;2023-01-23T02:35:46;103347.28;;;20.28;38.41
55187;BME280;55457;52.002;5.464;2023-01-23T02:38:12;103346.25;;;20.29;38.36
55187;BME280;55457;52.002;5.464;2023-01-23T02:40:40;103346.25;;;20.29;38.34
55187;BME280;55457;52.002;5.464;2023-01-23T02:43:12;103339.16;;;20.28;38.43
55187;BME280;55457;52.002;5.464;2023-01-23T02:45:39;103348.97;;;20.29;38.35
55187;BME280;55457;52.002;5.464;2023-01-23T02:48:05;103350.00;;;20.28;38.43
55187;BME280;55457;52.002;5.464;2023-01-23T02:50:32;103339.16;;;20.28;38.33
55187;BME280;55457;52.002;5.464;2023-01-23T02:52:58;103353.72;;;20.27;38.31
55187;BME280;55457;52.002;5.464;2023-01-23T02:55:24;103362.50;;;20.29;38.46
55187;BME280;55457;52.002;5.464;2023-01-23T02:57:57;103361.66;;;20.28;38.29
55187;BME280;55457;52.002;5.464;2023-01-23T03:00:42;103355.41;;;20.28;38.27
55187;BME280;55457;52.002;5.464;2023-01-23T03:03:08;103354.56;;;20.27;38.34
55187;BME280;55457;52.002;5.464;2023-01-23T03:05:34;103350.00;;;20.28;38.12
55187;BME280;55457;52.002;5.464;2023-01-23T03:08:00;103359.78;;;20.29;38.29
55187;BME280;55457;52.002;5.464;2023-01-23T03:10:25;103360.63;;;20.29;38.07
55187;BME280;55457;52.002;5.464;2023-01-23T03:12:51;103354.56;;;20.27;38.26
55187;BME280;55457;52.002;5.464;2023-01-23T03:15:16;103361.31;;;20.31;38.25
55187;BME280;55457;52.002;5.464;2023-01-23T03:17:42;103356.72;;;20.32;38.38
55187;BME280;55457;52.002;5.464;2023-01-23T03:20:07;103361.13;;;20.33;38.14
55187;BME280;55457;52.002;5.464;2023-01-23T03:22:33;103364.47;;;20.35;38.60
55187;BME280;55457;52.002;5.464;2023-01-23T03:24:58;103360.09;;;20.34;38.31
55187;BME280;55457;52.002;5.464;2023-01-23T03:27:24;103361.78;;;20.35;38.40
55187;BME280;55457;52.002;5.464;2023-01-23T03:29:49;103358.06;;;20.36;38.17
55187;BME280;55457;52.002;5.464;2023-01-23T03:32:33;103358.06;;;20.36;38.05
55187;BME280;55457;52.002;5.464;2023-01-23T03:34:58;103362.44;;;20.37;38.29
55187;BME280;55457;52.002;5.464;2023-01-23T03:37:24;103356.00;;;20.38;38.04
55187;BME280;55457;52.002;5.464;2023-01-23T03:39:49;103361.41;;;20.38;38.22
55187;BME280;55457;52.002;5.464;2023-01-23T03:42:33;103353.09;;;20.40;38.19
55187;BME280;55457;52.002;5.464;2023-01-23T03:44:59;103362.25;;;20.39;38.14
55187;BME280;55457;52.002;5.464;2023-01-23T03:47:25;103365.81;;;20.39;37.99
55187;BME280;55457;52.002;5.464;2023-01-23T03:49:51;103365.81;;;20.39;38.14
55187;BME280;55457;52.002;5.464;2023-01-23T03:52:17;103360.38;;;20.39;38.06
55187;BME280;55457;52.002;5.464;2023-01-23T03:54:42;103362.06;;;20.40;38.16
55187;BME280;55457;52.002;5.464;2023-01-23T03:57:08;103357.69;;;20.39;38.07
55187;BME280;55457;52.002;5.464;2023-01-23T03:59:33;103363.94;;;20.40;38.09
55187;BME280;55457;52.002;5.464;2023-01-23T04:02:00;103363.09;;;20.39;38.10
55187;BME280;55457;52.002;5.464;2023-01-23T04:04:29;103370.19;;;20.40;38.04
55187;BME280;55457;52.002;5.464;2023-01-23T04:06:54;103364.78;;;20.40;38.13
55187;BME280;55457;52.002;5.464;2023-01-23T04:09:19;103362.06;;;20.40;38.13
55187;BME280;55457;52.002;5.464;2023-01-23T04:11:50;103369.19;;;20.41;37.99
55187;BME280;55457;52.002;5.464;2023-01-23T04:14:15;103371.03;;;20.41;38.03
55187;BME280;55457;52.002;5.464;2023-01-23T04:16:40;103372.91;;;20.40;38.09
55187;BME280;55457;52.002;5.464;2023-01-23T04:19:05;103374.75;;;20.40;38.08
55187;BME280;55457;52.002;5.464;2023-01-23T04:21:31;103380.19;;;20.40;38.12
55187;BME280;55457;52.002;5.464;2023-01-23T04:23:56;103376.81;;;20.38;38.22
55187;BME280;55457;52.002;5.464;2023-01-23T04:26:21;103386.44;;;20.40;38.08
55187;BME280;55457;52.002;5.464;2023-01-23T04:28:47;103391.03;;;20.40;38.23
55187;BME280;55457;52.002;5.464;2023-01-23T04:31:12;103391.03;;;20.40;38.21
55187;BME280;55457;52.002;5.464;2023-01-23T04:33:37;103387.47;;;20.39;38.20
55187;BME280;55457;52.002;5.464;2023-01-23T04:36:04;103384.75;;;20.39;38.22
55187;BME280;55457;52.002;5.464;2023-01-23T04:38:31;103386.63;;;20.39;38.03
55187;BME280;55457;52.002;5.464;2023-01-23T04:40:56;103389.34;;;20.39;38.18
55187;BME280;55457;52.002;5.464;2023-01-23T04:43:22;103383.09;;;20.38;37.95
55187;BME280;55457;52.002;5.464;2023-01-23T04:45:51;103383.72;;;20.40;38.14
55187;BME280;55457;52.002;5.464;2023-01-23T04:48:17;103382.06;;;20.39;37.96
55187;BME280;55457;52.002;5.464;2023-01-23T04:50:42;103391.03;;;20.40;38.02
55187;BME280;55457;52.002;5.464;2023-01-23T04:53:07;103388.31;;;20.40;37.90
55187;BME280;55457;52.002;5.464;2023-01-23T04:55:33;103376.81;;;20.38;37.98
55187;BME280;55457;52.002;5.464;2023-01-23T04:57:58;103383.72;;;20.40;38.15
55187;BME280;55457;52.002;5.464;2023-01-23T05:00:25;103388.16;;;20.41;37.88
55187;BME280;55457;52.002;5.464;2023-01-23T05:02:52;103378.50;;;20.39;37.90
55187;BME280;55457;52.002;5.464;2023-01-23T05:05:18;103376.63;;;20.39;38.09
55187;BME280;55457;52.002;5.464;2023-01-23T05:07:46;103384.75;;;20.39;37.96
55187;BME280;55457;52.002;5.464;2023-01-23T05:10:12;103383.09;;;20.38;37.82
55187;BME280;55457;52.002;5.464;2023-01-23T05:12:37;103385.78;;;20.38;38.28
55187;BME280;55457;52.002;5.464;2023-01-23T05:15:03;103391.22;;;20.38;38.08
55187;BME280;55457;52.002;5.464;2023-01-23T05:17:29;103398.50;;;20.38;38.05
55187;BME280;55457;52.002;5.464;2023-01-23T05:19:54;103393.06;;;20.38;37.81
55187;BME280;55457;52.002;5.464;2023-01-23T05:22:19;103400.16;;;20.39;37.88
55187;BME280;55457;52.002;5.464;2023-01-23T05:24:45;103398.50;;;20.38;37.89
55187;BME280;55457;52.002;5.464;2023-01-23T05:27:11;103395.97;;;20.36;38.00
55187;BME280;55457;52.002;5.464;2023-01-23T05:29:37;103402.03;;;20.38;37.96
55187;BME280;55457;52.002;5.464;2023-01-23T05:32:02;103398.50;;;20.38;38.02
55187;BME280;55457;52.002;5.464;2023-01-23T05:34:28;103400.38;;;20.37;37.87
55187;BME280;55457;52.002;5.464;2023-01-23T05:36:53;103408.50;;;20.37;38.03
55187;BME280;55457;52.002;5.464;2023-01-23T05:39:18;103402.41;;;20.35;38.11
55187;BME280;55457;52.002;5.464;2023-01-23T05:41:43;103404.94;;;20.37;38.10
55187;BME280;55457;52.002;5.464;2023-01-23T05:44:09;103401.41;;;20.36;38.00
55187;BME280;55457;52.002;5.464;2023-01-23T05:46:34;103412.22;;;20.36;38.01
55187;BME280;55457;52.002;5.464;2023-01-23T05:48:59;103410.53;;;20.35;38.12
55187;BME280;55457;52.002;5.464;2023-01-23T05:51:24;103405.09;;;20.35;38.09
55187;BME280;55457;52.002;5.464;2023-01-23T05:53:56;103414.25;;;20.34;38.04
55187;BME280;55457;52.002;5.464;2023-01-23T05:56:21;103412.38;;;20.34;38.31
55187;BME280;55457;52.002;5.464;2023-01-23T05:58:47;103414.25;;;20.34;38.36
55187;BME280;55457;52.002;5.464;2023-01-23T06:01:12;103401.75;;;20.33;38.02
55187;BME280;55457;52.002;5.464;2023-01-23T06:03:37;103415.09;;;20.34;38.06
55187;BME280;55457;52.002;5.464;2023-01-23T06:06:03;103406.97;;;20.34;38.15
55187;BME280;55457;52.002;5.464;2023-01-23T06:08:28;103403.41;;;20.34;38.04
55187;BME280;55457;52.002;5.464;2023-01-23T06:10:56;103407.16;;;20.33;38.00
55187;BME280;55457;52.002;5.464;2023-01-23T06:13:23;103408.00;;;20.33;38.06
55187;BME280;55457;52.002;5.464;2023-01-23T06:15:48;103409.88;;;20.33;37.99
55187;BME280;55457;52.002;5.464;2023-01-23T06:18:13;103414.25;;;20.34;38.03
55187;BME280;55457;52.002;5.464;2023-01-23T06:20:38;103417.16;;;20.32;37.98
55187;BME280;55457;52.002;5.464;2023-01-23T06:23:04;103407.16;;;20.33;38.14
55187;BME280;55457;52.002;5.464;2023-01-23T06:25:29;103416.31;;;20.32;37.96
55187;BME280;55457;52.002;5.464;2023-01-23T06:27:55;103414.44;;;20.32;37.96
55187;BME280;55457;52.002;5.464;2023-01-23T06:30:20;103425.47;;;20.31;38.21
55187;BME280;55457;52.002;5.464;2023-01-23T06:32:45;103430.88;;;20.31;38.10
55187;BME280;55457;52.002;5.464;2023-01-23T06:35:11;103437.31;;;20.30;38.20
55187;BME280;55457;52.002;5.464;2023-01-23T06:37:36;103434.59;;;20.30;38.06
55187;BME280;55457;52.002;5.464;2023-01-23T06:40:02;103442.72;;;20.30;38.25
55187;BME280;55457;52.002;5.464;2023-01-23T06:42:27;103446.44;;;20.29;38.07
55187;BME280;55457;52.002;5.464;2023-01-23T06:44:52;103455.25;;;20.31;38.13
55187;BME280;55457;52.002;5.464;2023-01-23T06:47:18;103447.97;;;20.31;38.13
55187;BME280;55457;52.002;5.464;2023-01-23T06:49:44;103454.22;;;20.32;38.20
55187;BME280;55457;52.002;5.464;2023-01-23T06:52:09;103457.09;;;20.30;38.05
55187;BME280;55457;52.002;5.464;2023-01-23T06:54:35;103463.38;;;20.31;38.05
55187;BME280;55457;52.002;5.464;2023-01-23T06:57:00;103461.31;;;20.33;38.00
55187;BME280;55457;52.002;5.464;2023-01-23T06:59:25;103458.63;;;20.33;37.97
55187;BME280;55457;52.002;5.464;2023-01-23T07:01:51;103464.03;;;20.33;38.10
55187;BME280;55457;52.002;5.464;2023-01-23T07:04:16;103461.13;;;20.34;37.95
55187;BME280;55457;52.002;5.464;2023-01-23T07:06:41;103460.97;;;20.36;38.00
55187;BME280;55457;52.002;5.464;2023-01-23T07:09:07;103439.31;;;20.36;38.02
55187;BME280;55457;52.002;5.464;2023-01-23T07:11:32;103441.84;;;20.38;38.11
55187;BME280;55457;52.002;5.464;2023-01-23T07:13:57;103448.09;;;20.38;37.96
55187;BME280;55457;52.002;5.464;2023-01-23T07:16:23;103439.97;;;20.38;38.08
55187;BME280;55457;52.002;5.464;2023-01-23T07:18:49;103444.34;;;20.39;37.97
55187;BME280;55457;52.002;5.464;2023-01-23T07:21:14;103437.25;;;20.38;38.49
55187;BME280;55457;52.002;5.464;2023-01-23T07:23:40;103437.25;;;20.38;38.20
55187;BME280;55457;52.002;5.464;2023-01-23T07:26:05;103439.31;;;20.36;38.35
55187;BME280;55457;52.002;5.464;2023-01-23T07:28:37;103442.03;;;20.36;38.30
55187;BME280;55457;52.002;5.464;2023-01-23T07:31:04;103433.91;;;20.36;38.37
55187;BME280;55457;52.002;5.464;2023-01-23T07:33:29;103452.84;;;20.36;38.26
55187;BME280;55457;52.002;5.464;2023-01-23T07:35:55;103454.69;;;20.36;38.39
55187;BME280;55457;52.002;5.464;2023-01-23T07:38:20;103461.97;;;20.35;38.45
55187;BME280;55457;52.002;5.464;2023-01-23T07:40:48;103461.81;;;20.37;38.13
55187;BME280;55457;52.002;5.464;2023-01-23T07:43:13;103459.94;;;20.37;38.25
55187;BME280;55457;52.002;5.464;2023-01-23T07:45:39;103466.41;;;20.36;38.21
55187;BME280;55457;52.002;5.464;2023-01-23T07:48:04;103485.34;;;20.36;38.26
55187;BME280;55457;52.002;5.464;2023-01-23T07:50:29;103488.72;;;20.38;38.09
55187;BME280;55457;52.002;5.464;2023-01-23T07:52:55;103482.09;;;20.41;37.95
55187;BME280;55457;52.002;5.464;2023-01-23T07:55:20;103497.16;;;20.43;37.95
55187;BME280;55457;52.002;5.464;2023-01-23T07:57:45;103500.38;;;20.47;37.76
55187;BME280;55457;52.002;5.464;2023-01-23T08:00:11;103507.28;;;20.49;37.90
55187;BME280;55457;52.002;5.464;2023-01-23T08:02:36;103505.41;;;20.50;38.01
55187;BME280;55457;52.002;5.464;2023-01-23T08:05:02;103504.56;;;20.49;37.96
55187;BME280;55457;52.002;5.464;2023-01-23T08:07:28;103515.75;;;20.46;38.05
55187;BME280;55457;52.002;5.464;2023-01-23T08:09:53;103512.06;;;20.47;38.04
55187;BME280;55457;52.002;5.464;2023-01-23T08:12:18;103511.22;;;20.47;37.98
55187;BME280;55457;52.002;5.464;2023-01-23T08:14:44;103513.06;;;20.46;38.03
55187;BME280;55457;52.002;5.464;2023-01-23T08:17:09;103506.75;;;20.46;38.05
55187;BME280;55457;52.002;5.464;2023-01-23T08:19:34;103518.47;;;20.46;37.93
55187;BME280;55457;52.002;5.464;2023-01-23T08:21:59;103508.63;;;20.45;38.13
55187;BME280;55457;52.002;5.464;2023-01-23T08:24:25;103515.75;;;20.46;37.75
55187;BME280;55457;52.002;5.464;2023-01-23T08:26:50;103512.19;;;20.46;37.91
55187;BME280;55457;52.002;5.464;2023-01-23T08:29:15;103509.47;;;20.46;38.00
55187;BME280;55457;52.002;5.464;2023-01-23T08:31:41;103506.94;;;20.44;37.97
55187;BME280;55457;52.002;5.464;2023-01-23T08:34:06;103519.47;;;20.45;38.08
55187;BME280;55457;52.002;5.464;2023-01-23T08:36:31;103517.78;;;20.44;37.53
55187;BME280;55457;52.002;5.464;2023-01-23T08:38:58;103509.34;;;20.39;37.67
55187;BME280;55457;52.002;5.464;2023-01-23T08:41:24;103518.84;;;20.35;38.46
55187;BME280;55457;52.002;5.464;2023-01-23T08:43:49;103515.50;;;20.33;38.18
55187;BME280;55457;52.002;5.464;2023-01-23T08:46:15;103516.34;;;20.33;38.72
55187;BME280;55457;52.002;5.464;2023-01-23T08:48:40;103518.84;;;20.35;38.65
55187;BME280;55457;52.002;5.464;2023-01-23T08:51:12;103517.84;;;20.36;38.72
55187;BME280;55457;52.002;5.464;2023-01-23T08:53:39;103522.41;;;20.36;38.47
55187;BME280;55457;52.002;5.464;2023-01-23T08:56:07;103523.44;;;20.34;38.55
55187;BME280;55457;52.002;5.464;2023-01-23T08:58:33;103525.28;;;20.34;38.67
55187;BME280;55457;52.002;5.464;2023-01-23T09:00:58;103534.09;;;20.36;38.70
55187;BME280;55457;52.002;5.464;2023-01-23T09:03:24;103529.34;;;20.38;38.44
55187;BME280;55457;52.002;5.464;2023-01-23T09:05:49;103537.47;;;20.38;38.49
55187;BME280;55457;52.002;5.464;2023-01-23T09:08:15;103536.63;;;20.38;38.77
55187;BME280;55457;52.002;5.464;2023-01-23T09:10:40;103535.59;;;20.39;38.66
55187;BME280;55457;52.002;5.464;2023-01-23T09:13:06;103543.38;;;20.42;38.49
55187;BME280;55457;52.002;5.464;2023-01-23T09:15:31;103547.78;;;20.43;38.36
55187;BME280;55457;52.002;5.464;2023-01-23T09:17:57;103549.44;;;20.44;38.42
55187;BME280;55457;52.002;5.464;2023-01-23T09:20:22;103550.09;;;20.46;38.40
55187;BME280;55457;52.002;5.464;2023-01-23T09:22:51;103548.25;;;20.46;38.48
55187;BME280;55457;52.002;5.464;2023-01-23T09:25:17;103544.56;;;20.47;38.55
55187;BME280;55457;52.002;5.464;2023-01-23T09:27:42;103543.53;;;20.48;38.53
55187;BME280;55457;52.002;5.464;2023-01-23T09:30:08;103539.78;;;20.49;38.52
55187;BME280;55457;52.002;5.464;2023-01-23T09:32:34;103538.75;;;20.50;38.26
55187;BME280;55457;52.002;5.464;2023-01-23T09:34:59;103534.19;;;20.51;38.46
55187;BME280;55457;52.002;5.464;2023-01-23T09:37:24;103541.13;;;20.53;38.46
55187;BME280;55457;52.002;5.464;2023-01-23T09:39:50;103543.00;;;20.53;38.76
55187;BME280;55457;52.002;5.464;2023-01-23T09:42:18;103551.97;;;20.53;38.71
55187;BME280;55457;52.002;5.464;2023-01-23T09:44:47;103550.94;;;20.54;38.56
55187;BME280;55457;52.002;5.464;2023-01-23T09:47:19;103556.34;;;20.54;38.71
55187;BME280;55457;52.002;5.464;2023-01-23T09:50:01;103554.47;;;20.55;38.40
55187;BME280;55457;52.002;5.464;2023-01-23T09:52:34;103554.47;;;20.55;38.81
55187;BME280;55457;52.002;5.464;2023-01-23T09:57:47;103554.31;;;20.56;38.76
55187;BME280;55457;52.002;5.464;2023-01-23T10:00:31;103555.16;;;20.57;38.73
55187;BME280;55457;52.002;5.464;2023-01-23T10:03:02;103550.94;;;20.54;38.88
55187;BME280;55457;52.002;5.464;2023-01-23T10:06:08;103561.44;;;20.57;38.62
55187;BME280;55457;52.002;5.464;2023-01-23T10:08:51;103565.13;;;20.56;38.52
55187;BME280;55457;52.002;5.464;2023-01-23T10:17:07;103565.84;;;20.50;38.45
55187;BME280;55457;52.002;5.464;2023-01-23T10:22:46;103565.19;;;20.48;38.53
55187;BME280;55457;52.002;5.464;2023-01-23T10:25:21;103549.97;;;20.47;38.86
55187;BME280;55457;52.002;5.464;2023-01-23T10:27:50;103550.81;;;20.48;38.80
55187;BME280;55457;52.002;5.464;2023-01-23T10:30:23;103545.41;;;20.48;38.87
55187;BME280;55457;52.002;5.464;2023-01-23T10:32:56;103542.50;;;20.49;38.86
55187;BME280;55457;52.002;5.464;2023-01-23T10:35:39;103537.09;;;20.49;38.64
55187;BME280;55457;52.002;5.464;2023-01-23T10:38:24;103540.09;;;20.54;38.95
55187;BME280;55457;52.002;5.464;2023-01-23T10:40:50;103536.22;;;20.57;38.53
55187;BME280;55457;52.002;5.464;2023-01-23T10:43:34;103539.38;;;20.61;38.74
55187;BME280;55457;52.002;5.464;2023-01-23T10:46:00;103539.03;;;20.64;38.70
55187;BME280;55457;52.002;5.464;2023-01-23T10:50:58;103545.09;;;20.66;38.56
55187;BME280;55457;52.002;5.464;2023-01-23T10:53:24;103544.06;;;20.67;38.49
55187;BME280;55457;52.002;5.464;2023-01-23T10:55:52;103539.50;;;20.67;38.46
55187;BME280;55457;52.002;5.464;2023-01-23T10:58:28;103542.03;;;20.69;38.46
55187;BME280;55457;52.002;5.464;2023-01-23T11:00:56;103541.19;;;20.68;38.40
55187;BME280;55457;52.002;5.464;2023-01-23T11:03:26;103549.97;;;20.70;38.49
55187;BME280;55457;52.002;5.464;2023-01-23T11:06:03;103544.75;;;20.69;38.54
55187;BME280;55457;52.002;5.464;2023-01-23T11:13:42;103549.78;;;20.72;38.53
55187;BME280;55457;52.002;5.464;2023-01-23T11:16:16;103548.78;;;20.73;38.54
55187;BME280;55457;52.002;5.464;2023-01-23T11:18:50;103550.81;;;20.71;38.58
55187;BME280;55457;52.002;5.464;2023-01-23T11:21:28;103562.50;;;20.71;38.35
55187;BME280;55457;52.002;5.464;2023-01-23T11:24:17;103551.84;;;20.70;38.49
55187;BME280;55457;52.002;5.464;2023-01-23T11:26:43;103549.97;;;20.70;38.86
55187;BME280;55457;52.002;5.464;2023-01-23T11:29:19;103543.72;;;20.70;38.54
55187;BME280;55457;52.002;5.464;2023-01-23T11:31:46;103546.44;;;20.70;38.50
55187;BME280;55457;52.002;5.464;2023-01-23T11:34:12;103551.19;;;20.68;38.42
55187;BME280;55457;52.002;5.464;2023-01-23T11:36:42;103548.66;;;20.66;38.41
55187;BME280;55457;52.002;5.464;2023-01-23T11:40:17;103550.72;;;20.64;38.36
55187;BME280;55457;52.002;5.464;2023-01-23T11:42:11;103559.03;;;20.63;38.38
55187;BME280;55457;52.002;5.464;2023-01-23T11:44:37;103559.69;;;20.65;38.41
55187;BME280;55457;52.002;5.464;2023-01-23T11:47:27;103561.53;;;20.64;38.50
55187;BME280;55457;52.002;5.464;2023-01-23T11:52:57;103551.53;;;20.65;38.44
55187;BME280;55457;52.002;5.464;2023-01-23T12:09:12;103552.78;;;20.62;38.28
55187;BME280;55457;52.002;5.464;2023-01-23T12:17:14;103537.34;;;20.63;38.40
55187;BME280;55457;52.002;5.464;2023-01-23T12:20:01;103547.34;;;20.62;38.28
55187;BME280;55457;52.002;5.464;2023-01-23T12:39:44;103527.19;;;20.56;37.61
55187;BME280;55457;52.002;5.464;2023-01-23T12:42:19;103541.78;;;20.55;37.82
55187;BME280;55457;52.002;5.464;2023-01-23T12:47:47;103535.22;;;20.50;38.16
55187;BME280;55457;52.002;5.464;2023-01-23T12:50:19;103539.78;;;20.49;38.30
55187;BME280;55457;52.002;5.464;2023-01-23T12:52:50;103545.88;;;20.51;38.33
55187;BME280;55457;52.002;5.464;2023-01-23T12:55:25;103551.97;;;20.53;38.37
55187;BME280;55457;52.002;5.464;2023-01-23T12:57:55;103550.94;;;20.54;38.43
55187;BME280;55457;52.002;5.464;2023-01-23T13:09:05;103549.75;;;20.57;38.67
55187;BME280;55457;52.002;5.464;2023-01-23T13:14:23;103556.34;;;20.54;38.72
55187;BME280;55457;52.002;5.464;2023-01-23T13:16:51;103545.88;;;20.51;38.92
55187;BME280;55457;52.002;5.464;2023-01-23T13:19:23;103548.94;;;20.48;38.98
55187;BME280;55457;52.002;5.464;2023-01-23T13:24:43;103564.88;;;20.43;38.89
55187;BME280;55457;52.002;5.464;2023-01-23T13:27:39;103556.94;;;20.42;38.91
55187;BME280;55457;52.002;5.464;2023-01-23T13:32:45;103556.09;;;20.41;38.96
55187;BME280;55457;52.002;5.464;2023-01-23T13:41:26;103562.81;;;20.45;38.87
55187;BME280;55457;52.002;5.464;2023-01-23T13:43:54;103565.41;;;20.47;39.03
55187;BME280;55457;52.002;5.464;2023-01-23T13:52:26;103573.63;;;20.45;39.14
55187;BME280;55457;52.002;5.464;2023-01-23T13:55:28;103565.50;;;20.45;39.03
55187;BME280;55457;52.002;5.464;2023-01-23T13:58:15;103560.81;;;20.47;38.95
55187;BME280;55457;52.002;5.464;2023-01-23T14:00:50;103559.97;;;20.47;38.82
55187;BME280;55457;52.002;5.464;2023-01-23T14:03:39;103564.38;;;20.48;38.89
55187;BME280;55457;52.002;5.464;2023-01-23T14:06:32;103566.88;;;20.49;38.68
55187;BME280;55457;52.002;5.464;2023-01-23T14:08:58;103553.34;;;20.49;38.80
55187;BME280;55457;52.002;5.464;2023-01-23T14:11:23;103536.06;;;20.50;38.74
55187;BME280;55457;52.002;5.464;2023-01-23T14:13:50;103524.19;;;20.51;38.86
55187;BME280;55457;52.002;5.464;2023-01-23T14:16:39;103506.25;;;20.50;38.83
55187;BME280;55457;52.002;5.464;2023-01-23T14:19:21;103507.09;;;20.51;38.89
55187;BME280;55457;52.002;5.464;2023-01-23T14:21:49;103497.97;;;20.52;38.76
55187;BME280;55457;52.002;5.464;2023-01-23T14:24:44;103493.41;;;20.52;38.46
55187;BME280;55457;52.002;5.464;2023-01-23T14:27:31;103496.75;;;20.54;38.55
55187;BME280;55457;52.002;5.464;2023-01-23T14:29:59;103500.50;;;20.53;38.75
55187;BME280;55457;52.002;5.464;2023-01-23T14:32:28;103500.50;;;20.53;38.43
55187;BME280;55457;52.002;5.464;2023-01-23T14:34:53;103495.91;;;20.54;38.62
55187;BME280;55457;52.002;5.464;2023-01-23T14:37:19;103494.03;;;20.54;38.64